createdAt,value
2023-05-19T00:02:27.436Z,10.30
2023-05-19T00:04:55.146Z,10.30
2023-05-19T00:07:29.035Z,10.20
2023-05-19T00:09:56.589Z,10.20
2023-05-19T00:12:24.219Z,10.20
2023-05-19T00:14:51.956Z,10.10
2023-05-19T00:17:20.229Z,10.10
2023-05-19T00:19:48.045Z,10.10
2023-05-19T00:22:15.047Z,10.10
2023-05-19T00:24:42.832Z,10.10
2023-05-19T00:27:09.818Z,10.10
2023-05-19T00:29:37.099Z,10.10
2023-05-19T00:32:04.383Z,10.10
2023-05-19T00:34:31.965Z,10.10
2023-05-19T00:36:58.998Z,10.00
2023-05-19T00:39:26.229Z,10.10
2023-05-19T00:41:53.382Z,10.10
2023-05-19T00:44:21.189Z,9.90
2023-05-19T00:46:48.275Z,9.90
2023-05-19T00:49:15.656Z,9.90
2023-05-19T00:51:42.745Z,9.80
2023-05-19T00:54:10.596Z,9.80
2023-05-19T00:56:37.603Z,9.80
2023-05-19T00:59:05.491Z,9.80
2023-05-19T01:01:32.634Z,9.80
2023-05-19T01:04:00.957Z,9.80
2023-05-19T01:06:29.640Z,9.80
2023-05-19T01:08:57.564Z,9.80
2023-05-19T01:11:24.550Z,9.80
2023-05-19T01:13:52.310Z,9.80
2023-05-19T01:16:25.062Z,9.70
2023-05-19T01:18:56.856Z,9.80
2023-05-19T01:21:36.547Z,9.80
2023-05-19T01:24:30.578Z,9.80
2023-05-19T01:27:21.511Z,9.70
2023-05-19T01:30:23.820Z,9.80
2023-05-19T01:32:53.455Z,9.70
2023-05-19T01:35:24.867Z,9.70
2023-05-19T01:37:57.888Z,9.70
2023-05-19T01:40:27.082Z,9.70
2023-05-19T01:42:57.743Z,9.70
2023-05-19T01:45:27.804Z,9.60
2023-05-19T01:47:57.890Z,9.70
2023-05-19T01:50:25.795Z,9.60
2023-05-19T01:52:53.620Z,9.60
2023-05-19T01:55:22.962Z,9.60
2023-05-19T01:57:58.712Z,9.60
2023-05-19T02:00:34.970Z,9.60
2023-05-19T02:03:08.131Z,9.60
2023-05-19T02:05:45.863Z,9.60
2023-05-19T02:08:34.105Z,9.50
2023-05-19T02:11:07.930Z,9.60
2023-05-19T02:13:43.351Z,9.60
2023-05-19T02:16:13.394Z,9.60
2023-05-19T02:18:45.628Z,9.50
2023-05-19T02:21:13.574Z,9.50
2023-05-19T02:23:42.069Z,9.50
2023-05-19T02:26:09.439Z,9.50
2023-05-19T02:28:39.087Z,9.50
2023-05-19T02:31:08.930Z,9.40
2023-05-19T02:33:36.400Z,9.50
2023-05-19T02:36:03.860Z,9.50
2023-05-19T02:38:31.012Z,9.50
2023-05-19T02:40:58.686Z,9.40
2023-05-19T02:43:25.664Z,9.40
2023-05-19T02:45:53.047Z,9.40
2023-05-19T02:48:20.227Z,9.40
2023-05-19T02:50:47.506Z,9.40
2023-05-19T02:53:14.613Z,9.40
2023-05-19T02:55:42.603Z,9.50
2023-05-19T02:58:09.702Z,9.50
2023-05-19T03:00:36.940Z,9.50
2023-05-19T03:03:04.679Z,9.50
2023-05-19T03:05:32.025Z,9.50
2023-05-19T03:07:59.009Z,9.50
2023-05-19T03:10:26.274Z,9.60
2023-05-19T03:12:53.348Z,9.60
2023-05-19T03:15:22.922Z,9.60
2023-05-19T03:17:50.013Z,9.60
2023-05-19T03:20:17.763Z,9.60
2023-05-19T03:22:44.765Z,9.60
2023-05-19T03:25:12.541Z,9.60
2023-05-19T03:27:39.721Z,9.60
2023-05-19T03:30:08.152Z,9.60
2023-05-19T03:32:37.912Z,9.70
2023-05-19T03:35:05.758Z,9.70
2023-05-19T03:37:33.415Z,9.60
2023-05-19T03:40:00.836Z,9.70
2023-05-19T03:42:27.872Z,9.60
2023-05-19T03:44:55.105Z,9.60
2023-05-19T03:47:22.163Z,9.70
2023-05-19T03:49:49.421Z,9.70
2023-05-19T03:52:17.085Z,9.70
2023-05-19T03:54:45.002Z,9.80
2023-05-19T03:57:12.294Z,9.80
2023-05-19T03:59:41.419Z,9.80
2023-05-19T04:04:37.942Z,9.80
2023-05-19T04:07:05.031Z,9.90
2023-05-19T04:09:35.148Z,9.80
2023-05-19T04:12:05.208Z,9.80
2023-05-19T04:14:32.480Z,9.80
2023-05-19T04:17:00.011Z,9.80
2023-05-19T04:19:27.948Z,9.80
2023-05-19T04:21:54.988Z,9.80
2023-05-19T04:24:22.361Z,9.90
2023-05-19T04:26:49.523Z,9.90
2023-05-19T04:29:18.272Z,10.00
2023-05-19T04:31:45.737Z,10.00
2023-05-19T04:34:13.062Z,10.00
2023-05-19T04:36:40.437Z,10.10
2023-05-19T04:39:10.111Z,10.20
2023-05-19T04:41:40.489Z,10.20
2023-05-19T04:44:09.201Z,10.30
2023-05-19T04:46:36.269Z,10.40
2023-05-19T04:49:03.704Z,10.40
2023-05-19T04:51:31.568Z,10.40
2023-05-19T04:53:58.847Z,10.50
2023-05-19T04:56:27.404Z,10.60
2023-05-19T04:58:54.893Z,10.70
2023-05-19T05:01:25.931Z,10.80
2023-05-19T05:03:55.410Z,10.80
2023-05-19T05:06:22.562Z,10.80
2023-05-19T05:08:50.086Z,10.90
2023-05-19T05:11:17.936Z,10.80
2023-05-19T05:13:46.001Z,10.80
2023-05-19T05:16:13.762Z,10.90
2023-05-19T05:18:44.326Z,11.00
2023-05-19T05:21:12.440Z,11.10
2023-05-19T05:23:39.934Z,11.10
2023-05-19T05:26:15.419Z,11.10
2023-05-19T05:28:42.655Z,11.10
2023-05-19T05:31:09.655Z,11.10
2023-05-19T05:33:38.485Z,11.10
2023-05-19T05:36:05.744Z,11.20
2023-05-19T05:38:33.564Z,11.20
2023-05-19T05:43:30.549Z,11.20
2023-05-19T05:45:57.966Z,11.20
2023-05-19T05:48:25.878Z,11.20
2023-05-19T05:50:54.577Z,11.30
2023-05-19T05:53:23.161Z,11.40
2023-05-19T05:55:51.102Z,11.40
2023-05-19T05:58:18.391Z,11.50
2023-05-19T06:00:45.454Z,11.60
2023-05-19T06:03:13.507Z,11.60
2023-05-19T06:05:40.843Z,11.70
2023-05-19T06:08:07.927Z,11.70
2023-05-19T06:10:36.861Z,11.50
2023-05-19T06:13:04.035Z,11.60
2023-05-19T06:15:31.419Z,11.60
2023-05-19T06:17:59.263Z,11.60
2023-05-19T06:20:26.682Z,11.60
2023-05-19T06:22:53.700Z,11.70
2023-05-19T06:25:20.951Z,11.70
2023-05-19T06:27:47.918Z,11.80
2023-05-19T06:30:15.425Z,11.80
2023-05-19T06:32:42.456Z,11.80
2023-05-19T06:35:09.859Z,11.90
2023-05-19T06:37:36.860Z,12.10
2023-05-19T06:40:05.685Z,12.20
2023-05-19T06:42:32.823Z,12.30
2023-05-19T06:45:00.210Z,12.20
2023-05-19T06:47:27.361Z,12.30
2023-05-19T06:49:55.587Z,12.30
2023-05-19T06:52:23.740Z,12.20
2023-05-19T06:54:51.136Z,12.10
2023-05-19T06:57:18.244Z,12.20
2023-05-19T06:59:46.741Z,12.30
2023-05-19T07:02:14.168Z,12.40
2023-05-19T07:04:42.577Z,12.40
2023-05-19T07:07:09.745Z,12.30
2023-05-19T07:09:37.051Z,12.30
2023-05-19T07:12:04.146Z,12.50
2023-05-19T07:14:31.756Z,12.70
2023-05-19T07:16:58.821Z,12.90
2023-05-19T07:19:26.552Z,13.10
2023-05-19T07:21:54.876Z,13.00
2023-05-19T07:24:22.850Z,12.90
2023-05-19T07:26:49.900Z,12.90
2023-05-19T07:29:17.144Z,12.80
2023-05-19T07:31:44.210Z,13.00
2023-05-19T07:34:11.505Z,13.00
2023-05-19T07:36:39.642Z,13.00
2023-05-19T07:39:06.999Z,12.80
2023-05-19T07:41:34.459Z,12.80
2023-05-19T07:44:07.768Z,13.00
2023-05-19T07:46:35.979Z,12.90
2023-05-19T07:49:04.081Z,12.80
2023-05-19T07:51:31.844Z,12.90
2023-05-19T07:53:59.128Z,13.00
2023-05-19T07:56:26.177Z,13.10
2023-05-19T07:58:53.793Z,13.30
2023-05-19T08:01:20.980Z,13.60
2023-05-19T08:03:48.754Z,14.00
2023-05-19T08:06:15.832Z,14.30
2023-05-19T08:08:43.176Z,14.30
2023-05-19T08:11:10.273Z,14.20
2023-05-19T08:13:37.626Z,14.30
2023-05-19T08:16:05.281Z,13.80
2023-05-19T08:18:32.901Z,13.50
2023-05-19T08:20:59.861Z,13.50
2023-05-19T08:23:27.312Z,13.60
2023-05-19T08:25:54.392Z,13.80
2023-05-19T08:28:23.181Z,13.90
2023-05-19T08:30:52.314Z,13.80
2023-05-19T08:33:21.605Z,13.50
2023-05-19T08:35:48.883Z,13.40
2023-05-19T08:38:16.174Z,13.20
2023-05-19T08:40:44.077Z,13.30
2023-05-19T08:43:12.057Z,13.20
2023-05-19T08:45:43.143Z,13.00
2023-05-19T08:48:11.432Z,12.70
2023-05-19T08:50:42.638Z,12.60
2023-05-19T08:53:31.877Z,12.50
2023-05-19T08:56:10.546Z,12.40
2023-05-19T08:58:43.742Z,12.40
2023-05-19T09:01:14.870Z,12.40
2023-05-19T09:03:44.913Z,12.50
2023-05-19T09:06:13.189Z,12.50
2023-05-19T09:08:42.699Z,12.60
2023-05-19T09:11:10.467Z,12.60
2023-05-19T09:13:37.892Z,12.60
2023-05-19T09:16:05.459Z,12.40
2023-05-19T09:18:32.931Z,12.30
2023-05-19T09:21:03.291Z,12.30
2023-05-19T09:23:34.063Z,12.30
2023-05-19T09:26:07.725Z,12.40
2023-05-19T09:28:37.943Z,12.40
2023-05-19T09:31:06.742Z,12.50
2023-05-19T09:33:38.827Z,12.60
2023-05-19T09:36:08.374Z,12.80
2023-05-19T09:38:36.972Z,13.00
2023-05-19T09:41:05.214Z,13.00
2023-05-19T09:43:34.587Z,13.10
2023-05-19T09:46:12.122Z,13.10
2023-05-19T09:48:42.634Z,13.10
2023-05-19T09:51:12.844Z,13.10
2023-05-19T09:53:40.173Z,12.90
2023-05-19T09:56:10.011Z,12.90
2023-05-19T09:58:39.098Z,12.80
2023-05-19T10:01:07.624Z,12.70
2023-05-19T10:03:35.428Z,12.60
2023-05-19T10:06:04.581Z,12.60
2023-05-19T10:08:33.544Z,12.50
2023-05-19T10:11:00.964Z,12.50
2023-05-19T10:13:30.771Z,12.50
2023-05-19T10:15:59.979Z,12.60
2023-05-19T10:18:29.567Z,12.70
2023-05-19T10:20:59.020Z,12.90
2023-05-19T10:23:26.917Z,13.20
2023-05-19T10:25:58.089Z,13.70
2023-05-19T10:28:30.458Z,14.20
2023-05-19T10:31:01.519Z,14.40
2023-05-19T10:34:10.833Z,14.60
2023-05-19T10:36:49.013Z,14.80
2023-05-19T10:39:17.528Z,14.70
2023-05-19T10:42:07.516Z,14.50
2023-05-19T10:45:10.371Z,14.20
2023-05-19T10:47:37.673Z,13.90
2023-05-19T10:50:06.804Z,13.70
2023-05-19T10:52:38.318Z,13.70
2023-05-19T10:55:15.725Z,13.60
2023-05-19T10:57:56.923Z,13.50
2023-05-19T11:00:29.925Z,14.00
2023-05-19T11:05:52.403Z,14.90
2023-05-19T11:08:32.714Z,14.50
2023-05-19T11:11:16.888Z,14.10
2023-05-19T11:13:48.314Z,13.90
2023-05-19T11:16:19.637Z,13.90
2023-05-19T11:18:50.600Z,13.90
2023-05-19T11:21:20.651Z,13.90
2023-05-19T11:23:47.870Z,13.90
2023-05-19T11:26:15.799Z,13.70
2023-05-19T11:28:43.145Z,13.70
2023-05-19T11:31:11.387Z,13.70
2023-05-19T11:33:39.539Z,13.60
2023-05-19T11:36:08.020Z,13.70
2023-05-19T11:38:35.388Z,13.60
2023-05-19T11:41:04.201Z,13.60
2023-05-19T11:43:31.248Z,13.50
2023-05-19T11:45:59.308Z,13.50
2023-05-19T11:48:26.853Z,13.50
2023-05-19T11:50:54.349Z,13.30
2023-05-19T11:53:21.530Z,13.20
2023-05-19T11:55:49.602Z,13.10
2023-05-19T11:58:17.484Z,13.00
2023-05-19T12:00:47.709Z,13.10
2023-05-19T12:03:15.229Z,13.00
2023-05-19T12:05:48.965Z,13.00
2023-05-19T12:08:19.890Z,12.90
2023-05-19T12:10:52.776Z,12.90
2023-05-19T12:13:21.005Z,12.90
2023-05-19T12:15:50.714Z,13.00
2023-05-19T12:18:17.819Z,12.90
2023-05-19T12:20:45.282Z,12.90
2023-05-19T12:23:12.559Z,12.90
2023-05-19T12:25:40.449Z,12.90
2023-05-19T12:28:07.859Z,12.90
2023-05-19T12:30:35.782Z,12.90
2023-05-19T12:33:03.618Z,12.80
2023-05-19T12:35:36.199Z,12.80
2023-05-19T12:38:07.467Z,12.80
2023-05-19T12:40:36.408Z,12.90
2023-05-19T12:43:04.057Z,13.00
2023-05-19T12:45:36.096Z,13.00
2023-05-19T12:48:05.646Z,13.00
2023-05-19T12:50:34.575Z,13.00
2023-05-19T12:53:02.099Z,13.10
2023-05-19T12:55:29.946Z,13.20
2023-05-19T12:57:58.623Z,13.20
2023-05-19T13:00:31.258Z,13.20
2023-05-19T13:03:01.964Z,13.30
2023-05-19T13:05:39.921Z,13.30
2023-05-19T13:08:12.294Z,13.30
2023-05-19T13:10:41.888Z,13.40
2023-05-19T13:13:10.092Z,13.40
2023-05-19T13:15:42.519Z,13.30
2023-05-19T13:18:10.676Z,13.30
2023-05-19T13:20:39.386Z,13.30
2023-05-19T13:23:06.719Z,13.00
2023-05-19T13:25:34.497Z,12.90
2023-05-19T13:28:05.418Z,12.80
2023-05-19T13:30:34.381Z,12.70
2023-05-19T13:33:02.326Z,12.60
2023-05-19T13:35:30.773Z,12.60
2023-05-19T13:37:57.986Z,12.60
2023-05-19T13:40:28.141Z,12.60
2023-05-19T13:42:55.200Z,12.70
2023-05-19T13:45:22.613Z,12.70
2023-05-19T13:47:49.657Z,12.70
2023-05-19T13:50:17.351Z,12.70
2023-05-19T13:52:44.999Z,12.70
2023-05-19T13:55:12.306Z,12.90
2023-05-19T13:57:40.043Z,12.90
2023-05-19T14:00:10.442Z,12.90
2023-05-19T14:02:38.263Z,13.00
2023-05-19T14:05:07.324Z,13.00
2023-05-19T14:07:35.414Z,12.90
2023-05-19T14:10:05.488Z,13.00
2023-05-19T14:12:41.640Z,13.00
2023-05-19T14:15:20.144Z,13.00
2023-05-19T14:17:49.047Z,12.90
2023-05-19T14:20:16.769Z,12.90
2023-05-19T14:22:43.877Z,12.90
2023-05-19T14:25:11.413Z,12.70
2023-05-19T14:27:39.982Z,12.80
2023-05-19T14:30:08.730Z,12.80
2023-05-19T14:32:36.032Z,12.90
2023-05-19T14:35:04.367Z,12.90
2023-05-19T14:37:32.208Z,12.90
2023-05-19T14:40:00.329Z,12.80
2023-05-19T14:42:27.386Z,12.80
2023-05-19T14:44:54.662Z,12.80
2023-05-19T14:47:21.706Z,12.70
2023-05-19T14:49:49.378Z,12.60
2023-05-19T14:52:16.370Z,12.60
2023-05-19T14:54:43.641Z,12.70
2023-05-19T14:57:10.772Z,12.70
2023-05-19T14:59:39.059Z,12.70
2023-05-19T15:02:06.467Z,12.70
2023-05-19T15:04:33.997Z,12.70
2023-05-19T15:09:31.811Z,12.90
2023-05-19T15:12:01.247Z,12.90
2023-05-19T15:14:30.859Z,13.00
2023-05-19T15:16:59.940Z,13.10
2023-05-19T15:19:27.434Z,13.20
2023-05-19T15:21:54.670Z,13.30
2023-05-19T15:24:22.720Z,13.40
2023-05-19T15:26:49.788Z,13.50
2023-05-19T15:29:17.234Z,13.50
2023-05-19T15:31:44.291Z,13.50
2023-05-19T15:34:11.625Z,13.60
2023-05-19T15:36:38.605Z,13.50
2023-05-19T15:39:06.651Z,13.40
2023-05-19T15:41:33.962Z,13.30
2023-05-19T15:44:02.474Z,13.10
2023-05-19T15:46:30.614Z,13.00
2023-05-19T15:48:58.189Z,12.90
2023-05-19T15:51:25.520Z,12.90
2023-05-19T15:53:53.102Z,12.90
2023-05-19T15:56:21.593Z,13.00
2023-05-19T15:58:49.180Z,13.10
2023-05-19T16:01:17.083Z,13.00
2023-05-19T16:03:45.942Z,13.10
2023-05-19T16:06:13.244Z,13.10
2023-05-19T16:08:40.559Z,13.10
2023-05-19T16:11:07.563Z,13.00
2023-05-19T16:13:35.096Z,13.00
2023-05-19T16:16:02.300Z,12.90
2023-05-19T16:18:29.686Z,12.90
2023-05-19T16:20:56.931Z,12.80
2023-05-19T16:23:24.855Z,12.80
2023-05-19T16:25:53.004Z,12.80
2023-05-19T16:28:22.557Z,12.70
2023-05-19T16:30:51.718Z,12.70
2023-05-19T16:33:19.044Z,12.70
2023-05-19T16:35:46.112Z,12.70
2023-05-19T16:38:13.597Z,12.70
2023-05-19T16:40:40.615Z,12.70
2023-05-19T16:43:07.936Z,12.70
2023-05-19T16:45:35.116Z,12.60
2023-05-19T16:48:02.769Z,12.60
2023-05-19T16:50:29.965Z,12.60
2023-05-19T16:52:57.476Z,12.50
2023-05-19T16:55:25.461Z,12.60
2023-05-19T16:57:52.713Z,12.60
2023-05-19T17:00:19.981Z,12.60
2023-05-19T17:02:47.810Z,12.60
2023-05-19T17:05:15.129Z,12.60
2023-05-19T17:07:42.425Z,12.60
2023-05-19T17:10:09.802Z,12.60
2023-05-19T17:12:37.247Z,12.60
2023-05-19T17:15:04.920Z,12.60
2023-05-19T17:17:32.311Z,12.50
2023-05-19T17:19:59.859Z,12.50
2023-05-19T17:22:28.273Z,12.50
2023-05-19T17:24:57.548Z,12.50
2023-05-19T17:27:25.155Z,12.50
2023-05-19T17:29:52.402Z,12.50
2023-05-19T17:32:25.494Z,12.50
2023-05-19T17:34:52.593Z,12.50
2023-05-19T17:37:23.516Z,12.50
2023-05-19T17:39:50.954Z,12.50
2023-05-19T17:42:18.539Z,12.50
2023-05-19T17:44:45.592Z,12.50
2023-05-19T17:47:13.173Z,12.50
2023-05-19T17:49:40.470Z,12.50
2023-05-19T17:52:08.661Z,12.50
2023-05-19T17:54:36.048Z,12.50
2023-05-19T17:57:06.640Z,12.50
2023-05-19T17:59:33.934Z,12.50
2023-05-19T18:02:01.660Z,12.50
2023-05-19T18:04:29.000Z,12.50
2023-05-19T18:06:58.552Z,12.50
2023-05-19T18:09:28.914Z,12.40
2023-05-19T18:11:57.132Z,12.30
2023-05-19T18:14:24.194Z,12.30
2023-05-19T18:16:51.704Z,12.30
2023-05-19T18:19:18.847Z,12.30
2023-05-19T18:21:46.590Z,12.20
2023-05-19T18:24:13.562Z,12.20
2023-05-19T18:26:42.145Z,12.20
2023-05-19T18:29:14.551Z,12.10
2023-05-19T18:31:42.126Z,12.10
2023-05-19T18:34:09.421Z,12.10
2023-05-19T18:36:36.820Z,12.10
2023-05-19T18:39:04.678Z,12.10
2023-05-19T18:41:32.165Z,12.10
2023-05-19T18:43:59.226Z,12.00
2023-05-19T18:46:26.634Z,11.90
2023-05-19T18:48:53.621Z,12.00
2023-05-19T18:51:21.781Z,12.00
2023-05-19T18:53:50.198Z,11.90
2023-05-19T18:56:28.261Z,11.90
2023-05-19T18:58:55.362Z,11.90
2023-05-19T19:01:23.300Z,11.90
2023-05-19T19:03:50.599Z,11.90
2023-05-19T19:06:18.422Z,11.90
2023-05-19T19:08:45.588Z,11.80
2023-05-19T19:11:13.277Z,11.90
2023-05-19T19:13:40.503Z,11.90
2023-05-19T19:16:07.875Z,11.80
2023-05-19T19:18:36.475Z,11.80
2023-05-19T19:21:05.865Z,11.80
2023-05-19T19:23:33.303Z,11.80
2023-05-19T19:26:01.007Z,11.80
2023-05-19T19:28:28.148Z,11.80
2023-05-19T19:30:55.501Z,11.80
2023-05-19T19:33:22.592Z,11.70
2023-05-19T19:35:50.202Z,11.80
2023-05-19T19:38:17.599Z,11.70
2023-05-19T19:40:44.924Z,11.70
2023-05-19T19:43:12.042Z,11.70
2023-05-19T19:45:39.625Z,11.70
2023-05-19T19:48:07.280Z,11.70
2023-05-19T19:50:35.202Z,11.70
2023-05-19T19:53:02.364Z,11.70
2023-05-19T19:55:30.878Z,11.70
2023-05-19T19:57:58.031Z,11.70
2023-05-19T20:00:25.560Z,11.70
2023-05-19T20:03:04.294Z,11.70
2023-05-19T20:05:32.860Z,11.70
2023-05-19T20:08:00.267Z,11.70
2023-05-19T20:10:27.599Z,11.80
2023-05-19T20:12:54.742Z,11.70
2023-05-19T20:15:22.283Z,11.80
2023-05-19T20:17:49.500Z,11.80
2023-05-19T20:20:16.809Z,11.80
2023-05-19T20:22:46.658Z,11.80
2023-05-19T20:25:13.945Z,11.80
2023-05-19T20:27:41.001Z,11.80
2023-05-19T20:30:49.306Z,11.80
2023-05-19T20:33:19.583Z,11.70
2023-05-19T20:35:47.124Z,11.70
2023-05-19T20:38:14.193Z,11.70
2023-05-19T20:40:41.625Z,11.60
2023-05-19T20:43:08.643Z,11.70
2023-05-19T20:45:36.540Z,11.60
2023-05-19T20:48:04.093Z,11.60
2023-05-19T20:50:31.993Z,11.60
2023-05-19T20:52:59.248Z,11.60
2023-05-19T20:55:26.499Z,11.60
2023-05-19T20:57:53.586Z,11.60
2023-05-19T21:00:21.292Z,11.60
2023-05-19T21:02:48.309Z,11.60
2023-05-19T21:05:15.789Z,11.60
2023-05-19T21:07:42.860Z,11.60
2023-05-19T21:10:12.437Z,11.60
2023-05-19T21:12:39.554Z,11.60
2023-05-19T21:15:07.992Z,11.60
2023-05-19T21:17:35.008Z,11.60
2023-05-19T21:20:02.404Z,11.60
2023-05-19T21:22:29.619Z,11.60
2023-05-19T21:24:57.399Z,11.60
2023-05-19T21:27:24.488Z,11.60
2023-05-19T21:29:54.521Z,11.60
2023-05-19T21:32:21.948Z,11.60
2023-05-19T21:34:49.347Z,11.60
2023-05-19T21:37:19.763Z,11.60
2023-05-19T21:39:47.126Z,11.60
2023-05-19T21:42:14.090Z,11.60
2023-05-19T21:44:41.812Z,11.60
2023-05-19T21:47:08.838Z,11.70
2023-05-19T21:49:36.185Z,11.70
2023-05-19T21:52:03.237Z,11.60
2023-05-19T21:54:30.559Z,11.70
2023-05-19T21:56:57.670Z,11.60
2023-05-19T21:59:25.143Z,11.60
2023-05-19T22:01:52.588Z,11.60
2023-05-19T22:04:21.577Z,11.60
2023-05-19T22:06:48.600Z,11.60
2023-05-19T22:09:15.950Z,11.60
2023-05-19T22:11:42.905Z,11.60
2023-05-19T22:14:10.383Z,11.60
2023-05-19T22:16:37.544Z,11.60
2023-05-19T22:19:04.929Z,11.60
2023-05-19T22:21:32.073Z,11.60
2023-05-19T22:23:59.352Z,11.60
2023-05-19T22:26:27.185Z,11.60
2023-05-19T22:28:55.995Z,11.60
2023-05-19T22:31:22.960Z,11.60
2023-05-19T22:33:50.281Z,11.60
2023-05-19T22:36:17.341Z,11.60
2023-05-19T22:38:44.672Z,11.60
2023-05-19T22:41:11.614Z,11.60
2023-05-19T22:43:38.941Z,11.60
2023-05-19T22:46:06.293Z,11.60
2023-05-19T22:48:33.929Z,11.60
2023-05-19T22:51:01.159Z,11.60
2023-05-19T22:53:28.702Z,11.60
2023-05-19T22:55:55.772Z,11.50
2023-05-19T22:58:23.355Z,11.50
2023-05-19T23:00:50.412Z,11.50
2023-05-19T23:03:18.312Z,11.50
2023-05-19T23:05:45.321Z,11.50
2023-05-19T23:08:12.595Z,11.50
2023-05-19T23:10:39.597Z,11.50
2023-05-19T23:13:08.214Z,11.50
2023-05-19T23:15:35.636Z,11.50
2023-05-19T23:18:07.290Z,11.50
2023-05-19T23:20:34.987Z,11.50
2023-05-19T23:23:02.304Z,11.50
2023-05-19T23:25:29.468Z,11.50
2023-05-19T23:27:56.764Z,11.50
2023-05-19T23:30:23.745Z,11.50
2023-05-19T23:32:51.449Z,11.50
2023-05-19T23:35:20.063Z,11.50
2023-05-19T23:37:47.443Z,11.50
2023-05-19T23:40:14.798Z,11.50
2023-05-19T23:42:44.313Z,11.50
2023-05-19T23:45:11.639Z,11.50
2023-05-19T23:47:39.348Z,11.50
2023-05-19T23:50:06.762Z,11.50
2023-05-19T23:52:34.080Z,11.50
2023-05-19T23:55:01.211Z,11.50
2023-05-19T23:57:28.542Z,11.50
2023-05-19T23:59:55.679Z,11.50
